createdAt,value
2022-11-24T00:00:27.217Z,99919.47
2022-11-24T00:03:01.336Z,99927.88
2022-11-24T00:05:38.389Z,99937.31
2022-11-24T00:08:12.968Z,99931.03
2022-11-24T00:10:46.432Z,99933.22
2022-11-24T00:13:20.161Z,99928.66
2022-11-24T00:15:55.079Z,99937.88
2022-11-24T00:18:28.991Z,99938.66
2022-11-24T00:21:02.740Z,99935.19
2022-11-24T00:23:37.292Z,99941.22
2022-11-24T00:26:13.000Z,99939.44
2022-11-24T00:28:48.317Z,99941.00
2022-11-24T00:31:25.423Z,99946.28
2022-11-24T00:34:01.091Z,99952.09
2022-11-24T00:36:36.718Z,99955.47
2022-11-24T00:39:13.205Z,99949.22
2022-11-24T00:41:46.806Z,99950.91
2022-11-24T00:44:20.479Z,99949.31
2022-11-24T00:46:55.440Z,99948.22
2022-11-24T00:49:29.380Z,99955.06
2022-11-24T00:52:02.973Z,99961.69
2022-11-24T00:54:36.652Z,99963.47
2022-11-24T00:57:10.193Z,99973.91
2022-11-24T00:59:43.990Z,99965.25
2022-11-24T01:02:19.180Z,99972.31
2022-11-24T01:04:53.031Z,99967.25
2022-11-24T01:07:26.555Z,99967.06
2022-11-24T01:10:00.302Z,99976.69
2022-11-24T01:12:33.810Z,99975.88
2022-11-24T01:15:08.317Z,99970.72
2022-11-24T01:17:43.676Z,99976.69
2022-11-24T01:20:17.835Z,99980.94
2022-11-24T01:22:51.538Z,99984.41
2022-11-24T01:25:25.938Z,99978.94
2022-11-24T01:27:59.407Z,99981.84
2022-11-24T01:30:33.276Z,99977.69
2022-11-24T01:33:08.660Z,99977.47
2022-11-24T01:35:42.528Z,99974.78
2022-11-24T01:38:16.015Z,99978.38
2022-11-24T01:40:49.743Z,99975.88
2022-11-24T01:43:23.246Z,99981.06
2022-11-24T01:45:58.042Z,99982.84
2022-11-24T01:48:38.220Z,99980.38
2022-11-24T01:51:15.997Z,99983.03
2022-11-24T01:53:55.970Z,99984.84
2022-11-24T01:56:31.447Z,99982.50
2022-11-24T01:59:07.848Z,99985.97
2022-11-24T02:01:41.761Z,99987.06
2022-11-24T02:04:20.809Z,99992.34
2022-11-24T02:06:57.139Z,99994.13
2022-11-24T02:09:35.729Z,99995.03
2022-11-24T02:12:10.324Z,100000.19
2022-11-24T02:14:45.158Z,100009.72
2022-11-24T02:17:18.892Z,100008.81
2022-11-24T02:19:57.318Z,100006.22
2022-11-24T02:22:42.289Z,100013.19
2022-11-24T02:25:24.781Z,100013.38
2022-11-24T02:28:01.516Z,100015.97
2022-11-24T02:30:35.945Z,100013.19
2022-11-24T02:33:11.473Z,100012.38
2022-11-24T02:35:45.022Z,100012.28
2022-11-24T02:38:18.767Z,100013.50
2022-11-24T02:40:52.425Z,100007.34
2022-11-24T02:43:30.199Z,100009.72
2022-11-24T02:46:03.903Z,100014.66
2022-11-24T02:48:37.737Z,100020.41
2022-11-24T02:51:11.255Z,100017.72
2022-11-24T02:53:45.121Z,100013.88
2022-11-24T02:56:18.648Z,100008.53
2022-11-24T02:58:53.891Z,100013.47
2022-11-24T03:01:27.396Z,100021.88
2022-11-24T03:04:01.419Z,100024.47
2022-11-24T03:06:34.877Z,100020.78
2022-11-24T03:09:08.585Z,100024.16
2022-11-24T03:11:42.124Z,100024.16
2022-11-24T03:14:17.171Z,100024.94
2022-11-24T03:16:50.676Z,100022.34
2022-11-24T03:19:24.443Z,100024.16
2022-11-24T03:21:57.952Z,100025.72
2022-11-24T03:24:31.995Z,100033.44
2022-11-24T03:27:05.892Z,100041.88
2022-11-24T03:29:40.976Z,100043.41
2022-11-24T03:32:14.544Z,100046.25
2022-11-24T03:34:48.399Z,100054.09
2022-11-24T03:37:22.572Z,100054.28
2022-11-24T03:39:56.300Z,100050.47
2022-11-24T03:42:29.715Z,100057.63
2022-11-24T03:45:38.151Z,100061.44
2022-11-24T03:47:59.028Z,100066.03
2022-11-24T03:50:32.944Z,100064.34
2022-11-24T03:53:06.541Z,100066.13
2022-11-24T03:55:40.555Z,100064.44
2022-11-24T03:58:14.132Z,100066.34
2022-11-24T04:00:51.661Z,100064.19
2022-11-24T04:03:25.929Z,100058.94
2022-11-24T04:05:59.886Z,100072.81
2022-11-24T04:08:33.956Z,100079.09
2022-11-24T04:11:08.161Z,100083.34
2022-11-24T04:13:40.635Z,100088.50
2022-11-24T04:16:15.720Z,100087.63
2022-11-24T04:18:49.247Z,100102.88
2022-11-24T04:21:23.153Z,100102.09
2022-11-24T04:23:56.756Z,100109.63
2022-11-24T04:26:30.436Z,100114.09
2022-11-24T04:29:03.952Z,100116.00
2022-11-24T04:31:39.212Z,100104.78
2022-11-24T04:34:12.976Z,100112.88
2022-11-24T04:36:46.825Z,100105.34
2022-11-24T04:39:25.329Z,100112.09
2022-11-24T04:42:02.283Z,100108.94
2022-11-24T04:44:36.181Z,100113.09
2022-11-24T04:47:16.138Z,100121.84
2022-11-24T04:49:49.725Z,100119.16
2022-11-24T04:52:25.296Z,100127.19
2022-11-24T04:54:58.963Z,100127.53
2022-11-24T04:57:32.711Z,100132.00
2022-11-24T05:00:07.667Z,100131.09
2022-11-24T05:02:43.130Z,100137.25
2022-11-24T05:05:16.731Z,100139.28
2022-11-24T05:07:50.437Z,100144.56
2022-11-24T05:10:36.160Z,100140.31
2022-11-24T05:13:12.110Z,100137.16
2022-11-24T05:15:45.715Z,100137.81
2022-11-24T05:18:20.870Z,100150.72
2022-11-24T05:20:54.809Z,100145.88
2022-11-24T05:23:28.947Z,100155.22
2022-11-24T05:26:03.042Z,100149.16
2022-11-24T05:28:36.948Z,100151.94
2022-11-24T05:31:10.466Z,100151.84
2022-11-24T05:33:45.971Z,100163.06
2022-11-24T05:36:33.407Z,100153.75
2022-11-24T05:39:07.393Z,100153.75
2022-11-24T05:41:42.548Z,100164.75
2022-11-24T05:44:16.433Z,100154.75
2022-11-24T05:46:50.071Z,100162.47
2022-11-24T05:49:25.152Z,100170.66
2022-11-24T05:51:58.694Z,100170.66
2022-11-24T05:54:32.859Z,100175.69
2022-11-24T05:57:06.767Z,100183.66
2022-11-24T05:59:40.608Z,100179.41
2022-11-24T06:02:14.329Z,100184.66
2022-11-24T06:04:49.679Z,100188.28
2022-11-24T06:07:23.305Z,100193.75
2022-11-24T06:09:57.209Z,100178.84
2022-11-24T06:12:30.750Z,100186.59
2022-11-24T06:15:05.233Z,100183.31
2022-11-24T06:17:39.507Z,100185.22
2022-11-24T06:20:14.790Z,100184.53
2022-11-24T06:22:49.487Z,100191.28
2022-11-24T06:25:23.587Z,100192.59
2022-11-24T06:27:57.135Z,100200.34
2022-11-24T06:30:31.003Z,100203.81
2022-11-24T06:33:04.462Z,100203.81
2022-11-24T06:35:39.605Z,100204.81
2022-11-24T06:38:13.206Z,100210.00
2022-11-24T06:40:46.982Z,100222.81
2022-11-24T06:43:20.444Z,100230.53
2022-11-24T06:45:54.212Z,100226.97
2022-11-24T06:48:28.444Z,100229.66
2022-11-24T06:51:05.969Z,100234.91
2022-11-24T06:53:41.868Z,100231.13
2022-11-24T06:56:29.798Z,100236.75
2022-11-24T06:59:03.769Z,100233.97
2022-11-24T07:01:37.489Z,100246.63
2022-11-24T07:04:11.397Z,100245.50
2022-11-24T07:06:46.973Z,100254.94
2022-11-24T07:09:20.538Z,100261.13
2022-11-24T07:11:56.327Z,100259.31
2022-11-24T07:14:29.960Z,100253.47
2022-11-24T07:17:04.844Z,100257.84
2022-11-24T07:19:38.425Z,100260.00
2022-11-24T07:22:13.483Z,100263.38
2022-11-24T07:24:47.153Z,100263.94
2022-11-24T07:27:20.913Z,100262.13
2022-11-24T07:29:54.634Z,100268.97
2022-11-24T07:32:29.067Z,100280.19
2022-11-24T07:35:04.279Z,100277.50
2022-11-24T07:37:39.571Z,100284.47
2022-11-24T07:40:13.718Z,100285.34
2022-11-24T07:42:47.714Z,100295.94
2022-11-24T07:45:21.493Z,100304.69
2022-11-24T07:47:55.125Z,100305.69
2022-11-24T07:50:28.687Z,100309.16
2022-11-24T07:53:05.028Z,100317.25
2022-11-24T07:55:38.587Z,100315.66
2022-11-24T07:58:12.431Z,100316.66
2022-11-24T08:00:45.914Z,100322.94
2022-11-24T08:03:19.705Z,100316.44
2022-11-24T08:08:51.693Z,100326.53
2022-11-24T08:11:25.918Z,100335.19
2022-11-24T08:13:59.944Z,100340.47
2022-11-24T08:16:33.556Z,100341.03
2022-11-24T08:19:07.486Z,100352.47
2022-11-24T08:21:41.017Z,100346.66
2022-11-24T08:24:16.971Z,100354.63
2022-11-24T08:26:50.517Z,100353.34
2022-11-24T08:29:24.574Z,100350.88
2022-11-24T08:31:58.831Z,100353.91
2022-11-24T08:34:32.986Z,100360.97
2022-11-24T08:37:07.491Z,100365.47
2022-11-24T08:39:42.646Z,100355.91
2022-11-24T08:42:16.845Z,100362.41
2022-11-24T08:44:56.601Z,100371.06
2022-11-24T08:47:32.467Z,100370.78
2022-11-24T08:50:07.323Z,100367.31
2022-11-24T08:52:41.031Z,100374.72
2022-11-24T08:55:16.249Z,100378.31
2022-11-24T08:57:49.977Z,100382.22
2022-11-24T09:00:23.807Z,100374.78
2022-11-24T09:02:58.779Z,100377.81
2022-11-24T09:08:27.064Z,100393.47
2022-11-24T09:11:04.195Z,100394.47
2022-11-24T09:13:38.455Z,100396.50
2022-11-24T09:16:15.006Z,100394.00
2022-11-24T09:18:49.180Z,100399.97
2022-11-24T09:21:24.142Z,100399.97
2022-11-24T09:23:58.479Z,100405.16
2022-11-24T09:26:35.503Z,100401.38
2022-11-24T09:29:09.265Z,100411.84
2022-11-24T09:31:42.974Z,100413.16
2022-11-24T09:34:17.001Z,100411.38
2022-11-24T09:36:51.509Z,100410.81
2022-11-24T09:39:25.307Z,100404.59
2022-11-24T09:42:08.493Z,100403.66
2022-11-24T09:45:03.595Z,100419.31
2022-11-24T09:47:49.636Z,100417.25
2022-11-24T09:50:25.312Z,100424.41
2022-11-24T09:53:05.002Z,100430.13
2022-11-24T09:55:41.498Z,100422.94
2022-11-24T09:58:36.726Z,100421.75
2022-11-24T10:01:17.705Z,100425.03
2022-11-24T10:03:53.526Z,100423.88
2022-11-24T10:06:30.543Z,100423.09
2022-11-24T10:09:14.476Z,100429.66
2022-11-24T10:11:57.541Z,100432.94
2022-11-24T10:14:52.321Z,100430.13
2022-11-24T10:17:40.250Z,100437.53
2022-11-24T10:20:23.644Z,100437.31
2022-11-24T10:23:20.764Z,100439.13
2022-11-24T10:25:58.448Z,100437.00
2022-11-24T10:28:39.782Z,100442.59
2022-11-24T10:31:22.527Z,100450.19
2022-11-24T10:33:58.726Z,100453.50
2022-11-24T10:36:41.395Z,100456.56
2022-11-24T10:39:21.659Z,100454.97
2022-11-24T10:42:01.684Z,100454.88
2022-11-24T10:44:35.173Z,100452.47
2022-11-24T10:47:19.508Z,100450.06
2022-11-24T10:49:59.181Z,100455.66
2022-11-24T10:52:41.286Z,100453.59
2022-11-24T10:55:14.978Z,100444.22
2022-11-24T10:57:48.877Z,100454.97
2022-11-24T11:00:34.269Z,100459.53
2022-11-24T11:03:18.553Z,100459.34
2022-11-24T11:05:53.991Z,100463.13
2022-11-24T11:08:29.471Z,100466.50
2022-11-24T11:11:21.956Z,100463.44
2022-11-24T11:14:03.518Z,100465.59
2022-11-24T11:16:40.248Z,100466.88
2022-11-24T11:19:48.404Z,100464.59
2022-11-24T11:22:28.149Z,100468.56
2022-11-24T11:25:04.331Z,100473.75
2022-11-24T11:27:39.319Z,100481.53
2022-11-24T11:36:18.854Z,100483.84
2022-11-24T11:38:52.617Z,100484.56
2022-11-24T11:41:31.884Z,100492.34
2022-11-24T11:44:23.342Z,100493.00
2022-11-24T11:46:59.812Z,100492.78
2022-11-24T11:49:33.911Z,100499.22
2022-11-24T11:52:32.557Z,100504.44
2022-11-24T11:55:23.927Z,100511.31
2022-11-24T11:58:08.928Z,100509.09
2022-11-24T12:00:49.485Z,100508.03
2022-11-24T12:03:44.452Z,100513.91
2022-11-24T12:06:33.121Z,100510.88
2022-11-24T12:09:21.569Z,100505.28
2022-11-24T12:12:10.261Z,100519.56
2022-11-24T12:14:50.502Z,100518.38
2022-11-24T12:17:34.147Z,100516.84
2022-11-24T12:20:23.554Z,100527.69
2022-11-24T12:23:09.586Z,100536.03
2022-11-24T12:25:51.842Z,100531.44
2022-11-24T12:28:38.018Z,100535.22
2022-11-24T12:31:22.832Z,100539.31
2022-11-24T12:34:25.942Z,100532.69
2022-11-24T12:37:14.688Z,100535.34
2022-11-24T12:39:56.678Z,100538.50
2022-11-24T12:42:43.274Z,100548.44
2022-11-24T12:45:18.967Z,100545.34
2022-11-24T12:48:09.651Z,100543.09
2022-11-24T12:50:45.300Z,100557.75
2022-11-24T12:53:24.809Z,100551.78
2022-11-24T12:56:06.254Z,100560.03
2022-11-24T12:58:50.111Z,100560.22
2022-11-24T13:01:34.447Z,100558.59
2022-11-24T13:04:19.915Z,100562.63
2022-11-24T13:06:59.315Z,100568.09
2022-11-24T13:09:33.119Z,100566.59
2022-11-24T13:12:11.855Z,100573.31
2022-11-24T13:14:49.836Z,100577.78
2022-11-24T13:17:33.503Z,100583.00
2022-11-24T13:20:23.230Z,100591.41
2022-11-24T13:22:59.588Z,100590.09
2022-11-24T13:25:34.723Z,100590.75
2022-11-24T13:29:01.867Z,100591.53
2022-11-24T13:31:41.580Z,100593.78
2022-11-24T13:34:49.716Z,100598.97
2022-11-24T13:37:51.300Z,100603.28
2022-11-24T13:40:59.863Z,100601.31
2022-11-24T13:43:37.565Z,100609.22
2022-11-24T13:46:11.235Z,100610.72
2022-11-24T13:49:01.148Z,100613.03
2022-11-24T13:51:34.678Z,100610.19
2022-11-24T13:54:11.589Z,100606.59
2022-11-24T13:56:45.117Z,100615.84
2022-11-24T13:59:28.775Z,100620.91
2022-11-24T14:02:05.291Z,100631.44
2022-11-24T14:04:45.239Z,100631.06
2022-11-24T14:07:19.644Z,100633.56
2022-11-24T14:09:54.263Z,100630.88
2022-11-24T14:12:31.312Z,100639.38
2022-11-24T14:15:23.348Z,100641.81
2022-11-24T14:17:56.902Z,100637.41
2022-11-24T14:20:32.397Z,100647.53
2022-11-24T14:23:09.871Z,100649.59
2022-11-24T14:25:49.215Z,100647.47
2022-11-24T14:28:26.573Z,100646.47
2022-11-24T14:31:08.771Z,100655.06
2022-11-24T14:33:42.447Z,100657.75
2022-11-24T14:36:18.915Z,100657.69
2022-11-24T14:38:52.518Z,100660.28
2022-11-24T14:41:28.392Z,100667.28
2022-11-24T14:44:07.577Z,100669.69
2022-11-24T14:46:41.720Z,100670.41
2022-11-24T14:49:21.082Z,100673.72
2022-11-24T14:51:59.359Z,100674.88
2022-11-24T14:54:33.668Z,100686.00
2022-11-24T14:57:07.942Z,100682.31
2022-11-24T14:59:41.430Z,100686.00
2022-11-24T15:02:44.630Z,100691.00
2022-11-24T15:05:18.497Z,100696.13
2022-11-24T15:08:02.532Z,100686.72
2022-11-24T15:10:38.428Z,100684.09
2022-11-24T15:13:19.938Z,100695.13
2022-11-24T15:16:01.996Z,100695.63
2022-11-24T15:18:43.387Z,100698.03
2022-11-24T15:21:19.544Z,100704.13
2022-11-24T15:24:15.648Z,100708.25
2022-11-24T15:26:49.095Z,100708.84
2022-11-24T15:29:22.801Z,100703.47
2022-11-24T15:31:56.426Z,100703.16
2022-11-24T15:34:30.522Z,100702.47
2022-11-24T15:37:04.215Z,100696.16
2022-11-24T15:39:39.388Z,100698.38
2022-11-24T15:42:13.772Z,100701.38
2022-11-24T15:44:47.461Z,100712.28
2022-11-24T15:47:20.945Z,100712.56
2022-11-24T15:49:54.834Z,100707.59
2022-11-24T15:52:28.422Z,100711.56
2022-11-24T15:55:04.287Z,100710.56
2022-11-24T15:57:37.785Z,100712.06
2022-11-24T16:00:15.557Z,100708.09
2022-11-24T16:02:49.650Z,100715.69
2022-11-24T16:05:23.616Z,100717.47
2022-11-24T16:07:57.574Z,100717.47
2022-11-24T16:10:36.971Z,100720.38
2022-11-24T16:13:10.553Z,100726.66
2022-11-24T16:15:44.469Z,100718.88
2022-11-24T16:18:18.063Z,100712.09
2022-11-24T16:20:51.832Z,100717.34
2022-11-24T16:23:25.336Z,100716.31
2022-11-24T16:26:00.303Z,100724.00
2022-11-24T16:28:35.424Z,100713.88
2022-11-24T16:31:09.196Z,100713.94
2022-11-24T16:33:44.565Z,100723.09
2022-11-24T16:36:18.392Z,100720.31
2022-11-24T16:38:51.985Z,100717.50
2022-11-24T16:41:27.162Z,100720.69
2022-11-24T16:44:00.827Z,100723.72
2022-11-24T16:46:34.555Z,100720.50
2022-11-24T16:49:10.046Z,100719.63
2022-11-24T16:51:43.995Z,100724.50
2022-11-24T16:54:17.796Z,100726.78
2022-11-24T16:56:52.931Z,100721.94
2022-11-24T16:59:26.505Z,100725.22
2022-11-24T17:02:00.531Z,100719.22
2022-11-24T17:04:34.433Z,100725.22
2022-11-24T17:07:08.732Z,100729.28
2022-11-24T17:09:42.466Z,100723.00
2022-11-24T17:12:17.685Z,100736.19
2022-11-24T17:15:16.457Z,100738.81
2022-11-24T17:18:08.330Z,100742.09
2022-11-24T17:20:38.621Z,100734.47
2022-11-24T17:23:12.468Z,100746.81
2022-11-24T17:25:46.023Z,100742.78
2022-11-24T17:28:21.594Z,100748.88
2022-11-24T17:30:55.092Z,100747.97
2022-11-24T17:33:29.340Z,100749.00
2022-11-24T17:36:04.453Z,100756.16
2022-11-24T17:38:38.397Z,100767.53
2022-11-24T17:41:12.260Z,100775.44
2022-11-24T17:43:50.908Z,100773.50
2022-11-24T17:46:25.207Z,100776.00
2022-11-24T17:48:59.358Z,100777.00
2022-11-24T17:51:33.127Z,100775.53
2022-11-24T17:54:24.687Z,100778.00
2022-11-24T17:57:00.814Z,100779.28
2022-11-24T17:59:36.057Z,100781.97
2022-11-24T18:02:11.232Z,100779.28
2022-11-24T18:04:45.109Z,100780.03
2022-11-24T18:07:19.165Z,100784.53
2022-11-24T18:09:53.018Z,100793.31
2022-11-24T18:12:27.099Z,100794.53
2022-11-24T18:15:02.588Z,100794.75
2022-11-24T18:17:36.209Z,100804.06
2022-11-24T18:20:10.661Z,100796.97
2022-11-24T18:23:04.618Z,100797.53
2022-11-24T18:25:38.010Z,100803.13
2022-11-24T18:28:11.732Z,100803.13
2022-11-24T18:30:47.026Z,100807.41
2022-11-24T18:33:21.037Z,100804.47
2022-11-24T18:35:58.565Z,100808.63
2022-11-24T18:38:32.360Z,100803.00
2022-11-24T18:41:08.751Z,100802.56
2022-11-24T18:43:42.707Z,100802.16
2022-11-24T18:46:19.423Z,100803.47
2022-11-24T18:48:53.241Z,100803.13
2022-11-24T18:51:27.220Z,100803.69
2022-11-24T18:54:03.040Z,100801.88
2022-11-24T18:56:36.826Z,100802.34
2022-11-24T18:59:10.316Z,100812.22
2022-11-24T19:01:46.180Z,100807.16
2022-11-24T19:04:19.856Z,100822.16
2022-11-24T19:06:53.896Z,100817.19
2022-11-24T19:09:27.538Z,100823.31
2022-11-24T19:12:01.477Z,100812.38
2022-11-24T19:14:35.536Z,100817.75
2022-11-24T19:17:10.878Z,100819.66
2022-11-24T19:19:44.443Z,100815.72
2022-11-24T19:22:18.328Z,100816.91
2022-11-24T19:24:51.913Z,100808.94
2022-11-24T19:27:25.747Z,100811.13
2022-11-24T19:29:59.376Z,100816.03
2022-11-24T19:32:34.535Z,100813.22
2022-11-24T19:35:08.882Z,100811.94
2022-11-24T19:37:42.732Z,100811.84
2022-11-24T19:40:16.624Z,100822.94
2022-11-24T19:42:50.888Z,100827.09
2022-11-24T19:45:24.476Z,100827.31
2022-11-24T19:47:59.656Z,100826.91
2022-11-24T19:50:33.319Z,100826.00
2022-11-24T19:53:07.206Z,100829.25
2022-11-24T19:55:40.728Z,100832.38
2022-11-24T19:58:14.526Z,100835.63
2022-11-24T20:00:48.087Z,100835.50
2022-11-24T20:03:23.261Z,100835.34
2022-11-24T20:05:57.067Z,100841.56
2022-11-24T20:08:31.419Z,100839.34
2022-11-24T20:11:05.876Z,100849.13
2022-11-24T20:13:41.349Z,100854.19
2022-11-24T20:16:17.024Z,100858.31
2022-11-24T20:18:52.984Z,100858.19
2022-11-24T20:21:31.141Z,100863.13
2022-11-24T20:24:06.930Z,100856.91
2022-11-24T20:26:42.736Z,100865.41
2022-11-24T20:29:19.190Z,100866.97
2022-11-24T20:31:54.908Z,100859.88
2022-11-24T20:34:30.113Z,100859.88
2022-11-24T20:37:03.764Z,100862.22
2022-11-24T20:39:37.611Z,100862.63
2022-11-24T20:42:11.361Z,100862.75
2022-11-24T20:44:45.239Z,100868.47
2022-11-24T20:47:18.895Z,100878.41
2022-11-24T20:49:53.988Z,100887.44
2022-11-24T20:52:27.588Z,100879.97
2022-11-24T20:55:03.840Z,100884.75
2022-11-24T20:57:37.479Z,100881.91
2022-11-24T21:00:12.137Z,100889.38
2022-11-24T21:02:45.930Z,100884.63
2022-11-24T21:05:21.121Z,100886.44
2022-11-24T21:07:54.822Z,100886.81
2022-11-24T21:10:28.634Z,100890.16
2022-11-24T21:13:02.198Z,100891.97
2022-11-24T21:15:35.944Z,100884.22
2022-11-24T21:18:09.539Z,100899.06
2022-11-24T21:20:44.877Z,100896.47
2022-11-24T21:23:20.449Z,100898.16
2022-11-24T21:25:54.229Z,100903.56
2022-11-24T21:28:28.168Z,100910.94
2022-11-24T21:31:05.447Z,100907.31
2022-11-24T21:33:41.713Z,100914.81
2022-11-24T21:36:19.121Z,100911.34
2022-11-24T21:38:53.593Z,100919.97
2022-11-24T21:41:29.365Z,100907.84
2022-11-24T21:44:03.083Z,100919.72
2022-11-24T21:46:43.610Z,100920.63
2022-11-24T21:49:19.486Z,100922.03
2022-11-24T21:51:55.824Z,100922.28
2022-11-24T21:54:29.670Z,100925.38
2022-11-24T21:57:03.557Z,100922.69
2022-11-24T21:59:37.238Z,100925.91
2022-11-24T22:02:13.370Z,100927.47
2022-11-24T22:04:47.096Z,100927.34
2022-11-24T22:07:22.518Z,100928.09
2022-11-24T22:09:56.080Z,100932.19
2022-11-24T22:12:30.295Z,100933.88
2022-11-24T22:15:03.789Z,100927.94
2022-11-24T22:17:37.654Z,100925.22
2022-11-24T22:20:11.739Z,100928.59
2022-11-24T22:22:46.945Z,100931.16
2022-11-24T22:25:20.480Z,100933.63
2022-11-24T22:27:54.201Z,100928.59
2022-11-24T22:30:27.763Z,100937.22
2022-11-24T22:33:01.559Z,100929.25
2022-11-24T22:35:35.147Z,100933.25
2022-11-24T22:38:10.135Z,100929.75
2022-11-24T22:40:43.622Z,100930.00
2022-11-24T22:43:22.710Z,100924.59
2022-11-24T22:45:56.598Z,100939.28
2022-11-24T22:48:30.483Z,100935.56
2022-11-24T22:51:05.549Z,100932.72
2022-11-24T22:53:41.396Z,100931.03
2022-11-24T22:56:14.949Z,100930.41
2022-11-24T22:58:48.972Z,100920.84
2022-11-24T23:01:24.470Z,100916.59
2022-11-24T23:03:58.482Z,100922.78
2022-11-24T23:06:33.551Z,100922.78
2022-11-24T23:09:11.797Z,100918.41
2022-11-24T23:11:45.308Z,100918.28
2022-11-24T23:14:20.219Z,100917.50
2022-11-24T23:16:54.905Z,100911.31
2022-11-24T23:19:29.337Z,100910.53
2022-11-24T23:22:02.847Z,100911.44
2022-11-24T23:24:38.311Z,100916.84
2022-11-24T23:27:11.808Z,100911.06
2022-11-24T23:29:45.580Z,100907.81
2022-11-24T23:32:19.081Z,100903.44
2022-11-24T23:34:52.719Z,100906.16
2022-11-24T23:37:39.285Z,100906.28
2022-11-24T23:40:14.892Z,100899.44
2022-11-24T23:42:48.547Z,100899.72
2022-11-24T23:45:22.192Z,100902.56
2022-11-24T23:47:55.676Z,100904.38
2022-11-24T23:50:29.426Z,100905.28
2022-11-24T23:53:03.092Z,100895.72
2022-11-24T23:55:38.232Z,100901.00
2022-11-24T23:58:11.750Z,100897.53
